Time;durP1;ratioP1;P1;durP2;ratioP2;P2;SDS_P1;SDS_P2;PMS_P1;PMS_P2;Temp;Humidity;BMP_temperature;BMP_pressure;BME280_temperature;BME280_humidity;BME280_pressure;Samples;Min_cycle;Max_cycle;Signal;HPM_P1;HPM_P2
2022/04/23 00:00:46;;;;;;;9.00;3.25;;;;;;;25.41;30.46;99414.31;4955140;29;20058;-47
2022/04/23 00:03:14;;;;;;;8.23;3.88;;;;;;;25.40;30.57;99415.22;4954888;29;20103;-52
2022/04/23 00:05:43;;;;;;;8.48;3.80;;;;;;;25.45;30.43;99412.56;4954497;29;20087;-47
2022/04/23 00:08:13;;;;;;;6.10;3.17;;;;;;;25.45;30.41;99413.41;4954699;29;20488;-47
2022/04/23 00:10:41;;;;;;;5.45;3.28;;;;;;;25.40;30.34;99401.25;4954394;29;20046;-47
2022/04/23 00:13:10;;;;;;;10.30;3.90;;;;;;;25.38;30.27;99408.28;4954685;29;20110;-49
2022/04/23 00:15:39;;;;;;;7.05;3.72;;;;;;;25.29;30.37;99410.19;4954717;29;20115;-48
2022/04/23 00:18:08;;;;;;;8.27;4.05;;;;;;;25.22;30.76;99398.03;4954792;29;20532;-48
2022/04/23 00:20:37;;;;;;;7.88;3.90;;;;;;;25.33;30.58;99401.34;4937789;29;20057;-47
2022/04/23 00:23:07;;;;;;;9.15;3.65;;;;;;;25.34;30.32;99396.97;4937264;29;20063;-46
2022/04/23 00:25:39;;;;;;;4.80;2.83;;;;;;;25.32;30.50;99399.59;4954577;29;20043;-47
2022/04/23 00:28:09;;;;;;;6.30;3.05;;;;;;;25.29;30.25;99391.81;4955932;28;20474;-50
2022/04/23 00:30:38;;;;;;;5.78;3.05;;;;;;;25.33;30.22;99401.34;4957949;29;20066;-53
2022/04/23 00:33:09;;;;;;;6.45;3.55;;;;;;;25.26;30.20;99389.22;4958289;29;20039;-52
2022/04/23 00:35:37;;;;;;;7.78;3.33;;;;;;;25.26;30.34;99388.34;4957909;29;20031;-51
2022/04/23 00:38:07;;;;;;;8.35;3.20;;;;;;;25.30;30.39;99384.78;4958000;29;20031;-53
2022/04/23 00:40:36;;;;;;;6.78;3.33;;;;;;;25.29;30.17;99376.06;4958123;29;20110;-51
2022/04/23 00:43:10;;;;;;;7.13;3.58;;;;;;;25.29;30.02;99383.94;4940989;29;20072;-54
2022/04/23 00:45:40;;;;;;;6.75;3.28;;;;;;;25.25;30.49;99378.75;4957868;29;20097;-54
2022/04/23 00:48:09;;;;;;;10.52;3.33;;;;;;;25.24;30.23;99374.38;4958043;29;20122;-51
2022/04/23 00:50:38;;;;;;;6.03;2.47;;;;;;;25.24;30.46;99370.03;4957721;29;20035;-54
2022/04/23 00:53:07;;;;;;;6.22;3.25;;;;;;;25.20;30.41;99357.84;4940813;29;20447;-53
2022/04/23 00:55:36;;;;;;;4.10;2.58;;;;;;;25.21;30.55;99362.19;4957849;29;20452;-50
2022/04/23 00:58:05;;;;;;;5.22;2.63;;;;;;;25.23;30.10;99364.81;4957606;29;20382;-51
2022/04/23 01:00:34;;;;;;;6.40;3.20;;;;;;;25.19;30.06;99358.72;4940625;29;20027;-53
2022/04/23 01:03:03;;;;;;;6.10;3.33;;;;;;;25.17;30.63;99358.75;4957582;29;20484;-48
2022/04/23 01:05:31;;;;;;;5.25;3.30;;;;;;;25.15;30.33;99354.44;4957297;29;20465;-45
2022/04/23 01:08:02;;;;;;;6.75;3.42;;;;;;;25.20;30.07;99354.34;4957549;29;20023;-50
2022/04/23 01:10:31;;;;;;;5.55;2.97;;;;;;;25.27;30.18;99354.22;4957687;29;20031;-50
2022/04/23 01:13:00;;;;;;;6.70;2.95;;;;;;;25.16;30.34;99345.66;4957875;29;20035;-50
2022/04/23 01:15:28;;;;;;;4.75;2.85;;;;;;;25.19;30.45;99345.59;4957606;29;20023;-49
2022/04/23 01:17:57;;;;;;;6.00;3.40;;;;;;;25.21;30.27;99349.06;4957320;29;20031;-51
2022/04/23 01:20:25;;;;;;;8.82;3.17;;;;;;;25.20;29.94;99346.50;4956257;29;20105;-46
2022/04/23 01:22:55;;;;;;;6.97;3.17;;;;;;;25.16;30.21;99341.28;4957349;29;20027;-46
2022/04/23 01:25:23;;;;;;;7.82;3.15;;;;;;;25.12;30.19;99350.09;4957348;29;20024;-47
2022/04/23 01:27:52;;;;;;;5.97;3.13;;;;;;;25.06;30.31;99346.72;4957386;29;20385;-49
2022/04/23 01:30:21;;;;;;;4.70;2.63;;;;;;;25.09;30.02;99341.41;4956977;29;20046;-46
2022/04/23 01:32:50;;;;;;;8.40;3.10;;;;;;;25.06;30.23;99331.84;4957116;29;20027;-47
2022/04/23 01:35:18;;;;;;;6.68;3.35;;;;;;;25.02;30.57;99328.41;4957116;29;20374;-47
2022/04/23 01:37:47;;;;;;;5.03;2.72;;;;;;;25.05;30.56;99326.63;4956775;29;20056;-48
2022/04/23 01:40:16;;;;;;;6.20;3.10;;;;;;;24.98;30.54;99323.25;4956198;28;20027;-47
2022/04/23 01:42:45;;;;;;;4.50;3.00;;;;;;;24.91;30.51;99334.72;4956918;29;20039;-47
2022/04/23 01:45:14;;;;;;;5.65;3.20;;;;;;;24.94;30.13;99326.78;4956981;29;20103;-48
2022/04/23 01:47:42;;;;;;;4.97;2.65;;;;;;;24.97;30.57;99325.00;4956944;29;20035;-48
2022/04/23 01:50:11;;;;;;;6.60;3.42;;;;;;;25.00;30.52;99327.56;4956460;29;20050;-50
2022/04/23 01:52:40;;;;;;;6.05;3.22;;;;;;;24.95;30.52;99318.03;4956339;29;20504;-49
2022/04/23 01:55:09;;;;;;;5.88;3.05;;;;;;;24.92;30.35;99313.72;4956692;29;20110;-49
2022/04/23 01:57:38;;;;;;;6.63;3.10;;;;;;;24.97;30.55;99314.50;4956658;29;20041;-51
2022/04/23 02:00:08;;;;;;;6.30;2.63;;;;;;;25.07;30.35;99316.97;4956910;29;20023;-51
2022/04/23 02:02:37;;;;;;;8.38;4.00;;;;;;;25.06;30.04;99309.97;4956906;29;20038;-49
2022/04/23 02:05:07;;;;;;;5.05;2.78;;;;;;;24.99;30.53;99309.22;4956555;29;20453;-48
2022/04/23 02:07:46;;;;;;;5.47;2.75;;;;;;;25.00;30.17;99306.56;4956688;29;20034;-48
2022/04/23 02:10:16;;;;;;;8.02;4.03;;;;;;;24.98;30.54;99307.50;4956523;29;20035;-48
2022/04/23 02:12:46;;;;;;;6.72;2.97;;;;;;;25.03;30.21;99293.41;4956266;29;20106;-49
2022/04/23 02:15:16;;;;;;;6.22;2.70;;;;;;;24.97;30.18;99301.41;4956640;29;20030;-48
2022/04/23 02:17:49;;;;;;;7.45;2.80;;;;;;;24.97;30.21;99298.78;4956013;29;20019;-49
2022/04/23 02:20:17;;;;;;;3.80;2.58;;;;;;;25.07;30.36;99293.34;4956244;29;20047;-49
2022/04/23 02:22:46;;;;;;;6.68;3.05;;;;;;;25.01;30.35;99289.94;4956029;29;20466;-47
2022/04/23 02:25:16;;;;;;;6.10;2.70;;;;;;;24.97;30.17;99290.03;4956102;29;20119;-47
2022/04/23 02:27:47;;;;;;;6.10;3.30;;;;;;;24.93;30.54;99277.84;4955941;29;20042;-48
2022/04/23 02:30:18;;;;;;;6.50;3.22;;;;;;;24.95;30.09;99274.31;4956154;29;20042;-48
2022/04/23 02:32:47;;;;;;;6.43;2.88;;;;;;;25.02;30.11;99283.81;4956332;29;20034;-48
2022/04/23 02:35:17;;;;;;;6.32;2.75;;;;;;;25.01;29.95;99283.84;4938713;29;20023;-48
2022/04/23 02:37:46;;;;;;;6.47;3.15;;;;;;;24.89;30.39;99279.66;4955559;29;20138;-47
2022/04/23 02:40:15;;;;;;;5.55;2.80;;;;;;;24.85;30.46;99276.25;4938987;29;20027;-48
2022/04/23 02:42:45;;;;;;;5.47;2.67;;;;;;;24.87;30.37;99265.72;4955971;29;20500;-50
2022/04/23 02:45:15;;;;;;;6.70;3.22;;;;;;;24.88;30.19;99264.81;4955495;29;20086;-48
2022/04/23 02:47:54;;;;;;;7.07;3.33;;;;;;;24.93;30.22;99267.34;4955548;29;20167;-50
2022/04/23 02:50:27;;;;;;;5.75;2.85;;;;;;;24.88;30.08;99257.84;4955651;29;20481;-50
2022/04/23 02:52:57;;;;;;;4.82;2.83;;;;;;;24.91;30.09;99262.16;4955276;29;20418;-51
2022/04/23 02:55:27;;;;;;;6.28;2.95;;;;;;;24.85;30.51;99263.13;4955886;29;20030;-49
2022/04/23 02:57:57;;;;;;;5.47;3.10;;;;;;;24.84;30.46;99264.03;4955614;29;20043;-49
2022/04/23 03:00:25;;;;;;;6.57;3.20;;;;;;;24.79;30.26;99263.22;4955491;29;20482;-47
2022/04/23 03:02:54;;;;;;;6.57;2.67;;;;;;;24.83;30.09;99262.28;4955834;29;20038;-48
2022/04/23 03:05:24;;;;;;;4.50;2.83;;;;;;;24.83;30.24;99258.78;4955605;29;20031;-49
2022/04/23 03:07:53;;;;;;;6.85;2.95;;;;;;;24.80;30.46;99264.97;4955114;29;20613;-48
2022/04/23 03:10:22;;;;;;;3.08;2.05;;;;;;;24.85;30.48;99254.38;4955132;29;20039;-47
2022/04/23 03:12:50;;;;;;;5.28;2.75;;;;;;;24.90;30.30;99254.31;4955448;29;20023;-50
2022/04/23 03:15:19;;;;;;;6.07;2.95;;;;;;;24.93;30.30;99255.13;4955081;29;20086;-49
2022/04/23 03:17:48;;;;;;;4.78;2.63;;;;;;;24.93;30.02;99249.88;4955237;29;20031;-47
2022/04/23 03:20:17;;;;;;;4.63;2.80;;;;;;;24.95;30.32;99245.47;4955032;29;20064;-48
2022/04/23 03:22:45;;;;;;;5.15;3.50;;;;;;;24.85;29.99;99243.88;4955217;29;20031;-45
2022/04/23 03:25:14;;;;;;;7.32;2.80;;;;;;;24.88;30.15;99242.09;4955203;29;20031;-45
2022/04/23 03:27:43;;;;;;;4.40;2.95;;;;;;;24.90;30.07;99243.84;4955062;29;20448;-47
2022/04/23 03:30:12;;;;;;;5.93;2.70;;;;;;;24.89;30.15;99232.47;4954922;29;20444;-47
2022/04/23 03:32:41;;;;;;;4.88;2.78;;;;;;;24.81;30.16;99235.22;4955265;29;20074;-46
2022/04/23 03:35:10;;;;;;;4.07;2.42;;;;;;;24.82;30.06;99225.63;4955073;29;20038;-45
2022/04/23 03:37:43;;;;;;;5.07;2.30;;;;;;;24.82;30.26;99236.09;4954832;29;20493;-49
2022/04/23 03:40:12;;;;;;;7.28;2.90;;;;;;;24.96;30.02;99236.72;4955028;29;20038;-47
2022/04/23 03:42:45;;;;;;;5.38;3.10;;;;;;;24.89;29.88;99229.84;4955147;29;20026;-47
2022/04/23 03:45:13;;;;;;;4.80;2.97;;;;;;;24.84;30.20;99239.53;4954935;29;20553;-44
2022/04/23 03:47:47;;;;;;;6.35;3.42;;;;;;;24.79;30.38;99231.75;4954886;29;20457;-48
2022/04/23 03:50:16;;;;;;;9.32;3.13;;;;;;;24.71;30.55;99226.66;4954896;29;20043;-50
2022/04/23 03:52:45;;;;;;;8.82;3.13;;;;;;;24.75;30.27;99226.59;4954781;29;20035;-47
2022/04/23 03:55:14;;;;;;;6.82;2.83;;;;;;;24.71;30.33;99226.66;4954904;29;20031;-47
2022/04/23 03:57:54;;;;;;;7.90;3.70;;;;;;;24.72;30.51;99215.28;4954927;29;20494;-46
2022/04/23 04:00:23;;;;;;;8.05;3.30;;;;;;;24.81;30.10;99219.47;4954602;29;20031;-47
2022/04/23 04:02:54;;;;;;;4.15;2.67;;;;;;;24.80;30.43;99222.16;4955850;28;20089;-49
2022/04/23 04:05:23;;;;;;;6.45;2.97;;;;;;;24.83;30.03;99222.94;4940677;29;20114;-48
2022/04/23 04:07:52;;;;;;;5.30;3.28;;;;;;;24.72;30.31;99224.91;4941490;29;20028;-48
2022/04/23 04:10:23;;;;;;;4.38;3.00;;;;;;;24.71;30.26;99224.03;4957975;29;20032;-47
2022/04/23 04:12:52;;;;;;;6.68;3.35;;;;;;;24.66;30.42;99225.81;4958440;29;20038;-47
2022/04/23 04:15:21;;;;;;;4.80;2.75;;;;;;;24.75;30.08;99234.47;4958447;29;20457;-48
2022/04/23 04:17:51;;;;;;;5.38;3.33;;;;;;;24.70;30.41;99235.41;4958699;29;20024;-47
2022/04/23 04:20:21;;;;;;;5.47;3.10;;;;;;;24.69;30.44;99236.25;4958522;29;20034;-48
2022/04/23 04:22:50;;;;;;;4.68;2.67;;;;;;;24.74;30.12;99223.09;4958155;29;20114;-47
2022/04/23 04:25:19;;;;;;;6.35;3.40;;;;;;;24.71;30.26;99231.03;4958244;29;20397;-47
2022/04/23 04:27:47;;;;;;;5.45;2.97;;;;;;;24.64;30.79;99242.47;4958510;29;20050;-49
2022/04/23 04:30:16;;;;;;;5.05;3.08;;;;;;;24.66;30.78;99228.44;4941110;29;20039;-51
2022/04/23 04:32:45;;;;;;;6.40;3.17;;;;;;;24.75;30.77;99235.31;4958304;29;20042;-52
2022/04/23 04:35:13;;;;;;;4.93;2.95;;;;;;;24.76;30.32;99231.81;4958345;29;20023;-53
2022/04/23 04:37:42;;;;;;;5.55;3.28;;;;;;;24.71;30.90;99231.91;4957566;29;20043;-52
2022/04/23 04:40:12;;;;;;;5.40;3.17;;;;;;;24.77;30.54;99230.06;4941002;29;20114;-50
2022/04/23 04:42:40;;;;;;;5.00;3.00;;;;;;;24.75;30.60;99230.06;4941107;29;20097;-54
2022/04/23 04:45:08;;;;;;;5.13;2.78;;;;;;;24.66;30.36;99225.81;4940684;29;20031;-52
2022/04/23 04:47:37;;;;;;;7.22;3.10;;;;;;;24.68;30.51;99229.28;4957859;29;20031;-50
2022/04/23 04:50:06;;;;;;;5.57;2.80;;;;;;;24.71;30.76;99226.66;4940578;29;20031;-51
2022/04/23 04:52:34;;;;;;;6.00;2.83;;;;;;;24.76;30.65;99231.81;4957878;29;20087;-52
2022/04/23 04:55:03;;;;;;;5.20;2.63;;;;;;;24.69;30.88;99228.41;4957851;29;20421;-53
2022/04/23 04:57:30;;;;;;;6.00;2.83;;;;;;;24.77;30.35;99224.81;4958089;29;20028;-48
2022/04/23 04:59:59;;;;;;;4.93;2.90;;;;;;;24.78;30.48;99213.44;4958105;29;20480;-50
2022/04/23 05:02:28;;;;;;;5.03;2.47;;;;;;;24.79;30.70;99209.94;4941017;29;20059;-51
2022/04/23 05:04:57;;;;;;;5.43;2.67;;;;;;;24.71;30.36;99210.91;4957602;29;20038;-51
2022/04/23 05:07:25;;;;;;;4.15;2.95;;;;;;;24.65;30.59;99207.50;4957546;29;20023;-51
2022/04/23 05:09:54;;;;;;;10.70;3.80;;;;;;;24.77;30.87;99224.81;4957303;29;20374;-51
2022/04/23 05:12:22;;;;;;;6.15;3.58;;;;;;;24.70;30.68;99221.44;4940248;29;20051;-50
2022/04/23 05:14:51;;;;;;;4.25;2.67;;;;;;;24.70;30.71;99224.06;4956295;28;20110;-50
2022/04/23 05:17:19;;;;;;;5.28;2.70;;;;;;;24.68;30.56;99228.44;4957498;29;20046;-53
2022/04/23 05:19:48;;;;;;;14.82;3.60;;;;;;;24.70;30.66;99232.78;4957368;29;20441;-50
2022/04/23 05:22:16;;;;;;;5.85;2.78;;;;;;;24.70;30.52;99237.19;4940183;29;20036;-50
2022/04/23 05:24:45;;;;;;;5.80;3.42;;;;;;;24.66;30.99;99230.22;4957110;29;20050;-52
2022/04/23 05:27:14;;;;;;;4.43;2.75;;;;;;;24.57;30.89;99234.72;4957071;29;20090;-51
2022/04/23 05:29:42;;;;;;;3.88;2.65;;;;;;;24.65;30.95;99237.22;4956994;29;20115;-49
2022/04/23 05:32:11;;;;;;;6.53;3.45;;;;;;;24.63;30.73;99241.63;4957253;29;20027;-53
2022/04/23 05:34:39;;;;;;;5.28;2.80;;;;;;;24.60;31.11;99239.06;4956924;29;20397;-50
2022/04/23 05:37:08;;;;;;;6.50;3.10;;;;;;;24.61;30.84;99237.28;4956650;29;20051;-48
2022/04/23 05:39:37;;;;;;;7.35;3.65;;;;;;;24.60;31.01;99236.44;4939813;29;20445;-53
2022/04/23 05:42:05;;;;;;;5.25;3.13;;;;;;;24.60;30.75;99243.41;4957689;29;20178;-53
2022/04/23 05:44:34;;;;;;;6.70;3.20;;;;;;;24.64;31.11;99242.47;4957133;29;20033;-49
2022/04/23 05:47:03;;;;;;;5.03;3.58;;;;;;;24.63;30.75;99244.25;4956968;29;20051;-51
2022/04/23 05:49:32;;;;;;;4.90;3.13;;;;;;;24.64;30.68;99252.97;4956712;29;20481;-50
2022/04/23 05:52:00;;;;;;;7.50;3.88;;;;;;;24.55;31.29;99233.00;4956894;29;20035;-52
2022/04/23 05:54:29;;;;;;;6.43;4.85;;;;;;;24.46;31.47;99236.66;4956519;29;20531;-51
2022/04/23 05:56:57;;;;;;;6.57;3.92;;;;;;;24.49;31.30;99239.22;4939912;29;20042;-51
2022/04/23 05:59:28;;;;;;;6.78;4.47;;;;;;;24.49;31.60;99243.63;4956378;29;20086;-52
2022/04/23 06:01:57;;;;;;;7.93;3.92;;;;;;;24.51;31.02;99255.81;4956718;29;20054;-52
2022/04/23 06:04:26;;;;;;;6.60;3.40;;;;;;;24.51;31.09;99242.69;4956340;29;20385;-52
2022/04/23 06:06:55;;;;;;;6.97;3.88;;;;;;;24.52;31.50;99251.41;4956582;29;20027;-48
2022/04/23 06:09:24;;;;;;;6.65;3.33;;;;;;;24.49;31.25;99260.19;4956568;29;20031;-50
2022/04/23 06:11:52;;;;;;;8.85;3.60;;;;;;;24.56;31.03;99253.09;4956267;29;20089;-50
2022/04/23 06:14:21;;;;;;;11.60;4.00;;;;;;;24.53;31.06;99248.78;4956586;29;20031;-52
2022/04/23 06:16:49;;;;;;;7.60;3.40;;;;;;;24.54;31.19;99247.00;4957095;29;20167;-49
2022/04/23 06:19:18;;;;;;;7.22;3.70;;;;;;;24.56;31.43;99255.72;4956270;29;20076;-49
2022/04/23 06:21:46;;;;;;;8.57;3.08;;;;;;;24.62;31.37;99250.38;4939053;29;20389;-53
2022/04/23 06:24:15;;;;;;;5.10;2.92;;;;;;;24.62;31.04;99249.50;4956200;29;20031;-50
2022/04/23 06:26:43;;;;;;;8.00;2.92;;;;;;;24.67;31.14;99253.78;4939010;29;20093;-48
2022/04/23 06:29:12;;;;;;;4.82;3.22;;;;;;;24.62;31.06;99244.25;4956081;29;20031;-52
2022/04/23 06:31:41;;;;;;;6.72;3.47;;;;;;;24.62;31.31;99234.66;4955803;29;20031;-50
2022/04/23 06:34:09;;;;;;;6.93;2.70;;;;;;;24.69;30.89;99238.88;4939090;29;20027;-51
2022/04/23 06:36:38;;;;;;;5.40;3.05;;;;;;;24.65;31.39;99246.84;4955719;29;20133;-50
2022/04/23 06:39:07;;;;;;;5.63;3.25;;;;;;;24.70;31.02;99245.03;4956073;29;20023;-46
2022/04/23 06:41:36;;;;;;;5.47;3.15;;;;;;;24.72;31.21;99249.34;4938663;29;20054;-48
2022/04/23 06:44:04;;;;;;;6.95;3.00;;;;;;;24.82;30.79;99249.22;4955405;29;20031;-48
2022/04/23 06:46:33;;;;;;;5.50;3.03;;;;;;;24.81;31.21;99250.09;4956301;29;20042;-53
2022/04/23 06:49:05;;;;;;;4.85;2.75;;;;;;;24.81;31.08;99248.34;4955681;29;20106;-51
2022/04/23 06:51:35;;;;;;;4.85;2.97;;;;;;;24.83;31.49;99256.16;4955472;29;20054;-52
2022/04/23 06:54:03;;;;;;;5.68;2.85;;;;;;;24.87;31.04;99252.59;4955847;29;20024;-48
2022/04/23 06:56:32;;;;;;;7.35;3.65;;;;;;;24.88;31.31;99251.72;4955606;29;20027;-47
2022/04/23 06:59:01;;;;;;;7.25;2.80;;;;;;;24.85;31.55;99252.63;4938638;29;20031;-47
2022/04/23 07:01:29;;;;;;;5.70;3.05;;;;;;;24.92;31.21;99253.38;4955621;29;20461;-50
2022/04/23 07:03:58;;;;;;;6.32;3.40;;;;;;;24.93;31.58;99249.00;4955452;29;20059;-47
2022/04/23 07:06:26;;;;;;;6.15;2.92;;;;;;;24.96;31.78;99257.69;4955649;29;20031;-49
2022/04/23 07:08:55;;;;;;;6.18;3.08;;;;;;;24.95;31.49;99255.97;4955161;29;20098;-50
2022/04/23 07:11:24;;;;;;;7.13;3.38;;;;;;;24.97;31.77;99259.44;4955523;29;20481;-49
2022/04/23 07:13:53;;;;;;;6.43;2.70;;;;;;;24.98;31.64;99253.28;4955191;29;20027;-48
2022/04/23 07:16:21;;;;;;;6.38;2.67;;;;;;;25.02;31.56;99257.56;4955072;29;20393;-48
2022/04/23 07:18:52;;;;;;;4.97;2.80;;;;;;;25.02;31.57;99248.84;4954972;29;20031;-51
2022/04/23 07:21:21;;;;;;;6.43;3.10;;;;;;;25.07;32.08;99257.47;4955479;29;20032;-49
2022/04/23 07:24:11;;;;;;;9.77;3.28;;;;;;;25.11;31.76;99258.31;4955782;29;20027;-49
2022/04/23 07:26:38;;;;;;;5.72;3.08;;;;;;;25.12;31.80;99253.00;4955194;29;20456;-51
2022/04/23 07:29:08;;;;;;;7.57;3.42;;;;;;;25.13;31.89;99251.28;4938136;29;20035;-45
2022/04/23 07:31:37;;;;;;;3.72;2.42;;;;;;;25.16;31.94;99245.94;4955024;29;20027;-47
2022/04/23 07:37:34;;;;;;;5.88;2.95;;;;;;;25.21;31.51;99246.72;4948414;28;20043;-50
2022/04/23 07:39:41;;;;;;;8.85;3.10;;;;;;;25.24;31.86;99251.03;4955602;28;20054;-48
2022/04/23 07:42:10;;;;;;;7.80;2.63;;;;;;;25.26;31.95;99244.00;4961293;29;20035;-49
2022/04/23 07:44:38;;;;;;;8.02;2.85;;;;;;;25.26;31.78;99241.38;4961504;29;20384;-47
2022/04/23 07:47:07;;;;;;;4.05;2.88;;;;;;;25.22;31.85;99237.09;4961274;29;20065;-45
2022/04/23 07:49:36;;;;;;;7.05;3.50;;;;;;;25.28;31.52;99243.09;4961532;29;20035;-46
2022/04/23 07:52:04;;;;;;;5.88;2.95;;;;;;;25.30;31.64;99237.81;4944333;29;20055;-47
2022/04/23 07:54:33;;;;;;;6.30;3.15;;;;;;;25.30;31.41;99240.44;4961137;28;20058;-50
2022/04/23 07:57:02;;;;;;;8.80;3.38;;;;;;;25.31;31.46;99229.91;4961465;29;20378;-47
2022/04/23 07:59:30;;;;;;;6.82;3.55;;;;;;;25.34;31.73;99237.72;4961225;29;20477;-47
2022/04/23 08:02:01;;;;;;;5.38;2.78;;;;;;;25.33;31.83;99238.59;4961166;29;20042;-53
2022/04/23 08:04:29;;;;;;;8.85;3.45;;;;;;;25.36;31.82;99232.44;4961081;28;20397;-47
2022/04/23 08:06:58;;;;;;;8.15;3.90;;;;;;;25.36;31.92;99234.19;4944424;29;20516;-45
2022/04/23 08:09:27;;;;;;;8.10;3.67;;;;;;;25.42;31.82;99236.72;4960822;28;20410;-45
2022/04/23 08:11:56;;;;;;;6.38;3.10;;;;;;;25.43;31.75;99231.44;4960931;28;20083;-50
2022/04/23 08:14:25;;;;;;;4.93;2.72;;;;;;;25.46;31.97;99233.16;4961273;28;20027;-45
2022/04/23 08:16:53;;;;;;;7.18;2.72;;;;;;;25.48;31.96;99234.00;4961251;28;20054;-47
2022/04/23 08:19:21;;;;;;;9.82;3.97;;;;;;;25.47;32.00;99227.88;4943533;29;20481;-50
2022/04/23 08:21:50;;;;;;;7.78;3.72;;;;;;;25.47;32.05;99240.13;4944170;29;20062;-47
2022/04/23 08:24:19;;;;;;;7.50;3.63;;;;;;;25.54;31.88;99233.00;4960946;28;20065;-48
2022/04/23 08:26:47;;;;;;;7.18;2.92;;;;;;;25.60;31.93;99232.84;4943977;29;20031;-47
2022/04/23 08:32:05;;;;;;;6.32;2.97;;;;;;;25.61;31.83;99232.84;4954241;29;20039;-45
2022/04/23 08:34:33;;;;;;;7.80;3.40;;;;;;;25.63;31.90;99228.41;4960950;29;20027;-47
2022/04/23 08:37:02;;;;;;;8.27;3.90;;;;;;;25.74;31.77;99235.19;4961169;29;20130;-48
2022/04/23 08:39:30;;;;;;;5.13;3.33;;;;;;;25.73;31.82;99236.09;4960570;29;20059;-51
2022/04/23 08:41:59;;;;;;;6.72;3.63;;;;;;;25.75;31.95;99229.88;4961006;28;20461;-47
2022/04/23 08:44:27;;;;;;;6.30;2.88;;;;;;;25.77;31.90;99228.09;4960394;29;20082;-47
2022/04/23 08:46:57;;;;;;;5.90;2.90;;;;;;;25.81;32.01;99233.28;4960845;29;20030;-47
2022/04/23 08:49:34;;;;;;;8.00;2.90;;;;;;;25.83;31.75;99229.72;4959496;28;20093;-49
2022/04/23 08:52:17;;;;;;;7.65;3.00;;;;;;;25.91;31.65;99232.19;4957868;29;20027;-49
2022/04/23 08:54:46;;;;;;;6.97;3.35;;;;;;;25.93;31.67;99233.88;4958060;29;20046;-45
2022/04/23 08:57:14;;;;;;;5.97;2.97;;;;;;;25.97;31.95;99241.72;4957904;29;20082;-47
2022/04/23 08:59:44;;;;;;;6.10;3.05;;;;;;;26.03;31.84;99244.16;4957697;29;20477;-46
2022/04/23 09:02:13;;;;;;;5.63;3.00;;;;;;;26.03;31.61;99244.16;4957459;29;20038;-50
2022/04/23 09:04:42;;;;;;;7.78;3.22;;;;;;;26.07;31.76;99246.69;4957620;29;20070;-50
2022/04/23 09:07:22;;;;;;;6.15;2.88;;;;;;;26.10;31.55;99251.03;4940572;29;20038;-49
2022/04/23 09:09:53;;;;;;;6.55;2.72;;;;;;;26.13;31.67;99244.88;4957467;29;20039;-46
2022/04/23 09:12:24;;;;;;;8.90;3.72;;;;;;;26.15;31.56;99249.16;4957823;29;20023;-47
2022/04/23 09:14:53;;;;;;;7.70;2.80;;;;;;;26.17;31.85;99239.50;4957551;29;20094;-47
2022/04/23 09:23:53;;;;;;;6.20;3.00;;;;;;;26.27;31.51;99250.66;4949674;29;20047;-50
2022/04/23 09:25:57;;;;;;;10.60;3.53;;;;;;;26.31;31.34;99243.59;4939549;29;20127;-50
2022/04/23 09:28:26;;;;;;;8.55;3.15;;;;;;;26.35;31.65;99246.09;4939955;29;20055;-46
2022/04/23 09:30:56;;;;;;;6.57;3.28;;;;;;;26.36;31.44;99252.19;4957322;29;20031;-48
2022/04/23 09:33:43;;;;;;;8.90;3.28;;;;;;;26.39;31.51;99252.97;4957143;29;20103;-46
2022/04/23 09:36:12;;;;;;;7.22;3.40;;;;;;;26.42;31.72;99254.69;4956966;29;20043;-49
2022/04/23 09:38:40;;;;;;;10.05;3.50;;;;;;;26.47;31.53;99263.34;4956971;29;20043;-48
2022/04/23 09:41:20;;;;;;;6.05;2.83;;;;;;;26.48;31.59;99254.53;4956868;29;20125;-49
2022/04/23 09:43:49;;;;;;;9.25;3.78;;;;;;;26.46;31.61;99258.09;4941642;29;20031;-46
2022/04/23 09:46:18;;;;;;;5.53;2.78;;;;;;;26.52;31.64;99252.69;4956944;29;20492;-46
2022/04/23 09:48:46;;;;;;;8.15;3.45;;;;;;;26.53;31.33;99250.03;4957002;29;20442;-47
2022/04/23 09:51:26;;;;;;;8.60;3.03;;;;;;;26.60;31.55;99260.41;4924093;29;20038;-47
2022/04/23 09:53:55;;;;;;;7.60;2.95;;;;;;;26.58;31.15;99252.53;4956143;29;20031;-48
2022/04/23 09:56:25;;;;;;;6.72;2.90;;;;;;;26.59;31.29;99258.66;4956892;29;20047;-48
2022/04/23 09:58:54;;;;;;;8.15;3.58;;;;;;;26.63;31.44;99262.97;4956641;29;20055;-47
2022/04/23 10:01:24;;;;;;;6.13;3.00;;;;;;;26.67;31.38;99262.84;4939020;29;20549;-50
2022/04/23 10:03:54;;;;;;;7.75;3.55;;;;;;;26.69;31.55;99265.41;4956589;29;20027;-52
2022/04/23 10:06:24;;;;;;;6.28;3.30;;;;;;;26.72;31.20;99260.09;4956567;29;20028;-51
2022/04/23 10:08:55;;;;;;;8.75;2.95;;;;;;;26.75;31.31;99264.38;4956735;29;20051;-48
2022/04/23 10:11:28;;;;;;;14.52;3.10;;;;;;;26.77;31.32;99268.72;4956651;29;20031;-50
2022/04/23 10:14:00;;;;;;;7.80;2.95;;;;;;;26.74;31.32;99262.66;4956636;29;20437;-50
2022/04/23 10:16:30;;;;;;;6.53;3.20;;;;;;;26.79;31.13;99274.84;4939487;29;20042;-51
2022/04/23 10:19:00;;;;;;;5.32;2.92;;;;;;;26.81;31.30;99265.13;4956254;29;20105;-47
2022/04/23 10:21:39;;;;;;;5.22;2.72;;;;;;;26.83;31.09;99271.22;4956418;29;20543;-50
2022/04/23 10:24:20;;;;;;;7.95;3.22;;;;;;;26.87;31.30;99264.13;4956175;29;20091;-51
2022/04/23 10:26:49;;;;;;;5.90;2.90;;;;;;;26.91;31.13;99271.00;4940024;29;20029;-52
2022/04/23 10:29:21;;;;;;;6.15;2.75;;;;;;;26.89;31.14;99266.72;4955722;29;20110;-53
2022/04/23 10:32:16;;;;;;;6.68;3.38;;;;;;;26.91;31.21;99259.66;4955842;29;20487;-52
2022/04/23 10:34:45;;;;;;;7.10;2.77;;;;;;;27.00;31.26;99272.53;4951255;29;20099;-49
2022/04/23 10:37:14;;;;;;;5.50;2.90;;;;;;;26.99;31.01;99269.06;4956147;29;20631;-54
2022/04/23 10:39:43;;;;;;;8.63;2.95;;;;;;;26.95;30.94;99270.03;4955366;29;20425;-50
2022/04/23 10:42:15;;;;;;;6.65;2.78;;;;;;;27.02;30.82;99275.16;4939120;29;20107;-53
2022/04/23 10:44:44;;;;;;;6.50;3.13;;;;;;;26.99;30.88;99265.56;4955852;29;20035;-49
2022/04/23 10:47:16;;;;;;;5.53;2.85;;;;;;;26.99;30.96;99269.06;4955873;29;20470;-49
2022/04/23 10:49:44;;;;;;;8.45;3.38;;;;;;;27.01;30.64;99271.63;4955451;29;20031;-48
2022/04/23 10:52:35;;;;;;;6.18;2.65;;;;;;;27.06;30.78;99269.75;4955672;29;20417;-48
2022/04/23 10:55:04;;;;;;;12.23;3.13;;;;;;;27.07;30.83;99276.75;4955984;29;20429;-49
2022/04/23 10:57:33;;;;;;;6.35;3.10;;;;;;;27.10;30.92;99278.44;4938084;29;20019;-51
2022/04/23 11:00:12;;;;;;;7.78;2.97;;;;;;;27.07;30.58;99270.59;4955061;29;20082;-54
2022/04/23 11:02:41;;;;;;;6.63;2.83;;;;;;;27.10;30.44;99281.94;4955103;29;20031;-51
2022/04/23 11:13:53;;;;;;;6.25;2.67;;;;;;;27.15;30.70;99276.53;4943843;29;20046;-51
2022/04/23 11:16:23;;;;;;;4.63;2.60;;;;;;;27.14;30.70;99278.28;4938335;29;20027;-49
2022/04/23 11:18:52;;;;;;;7.13;2.58;;;;;;;27.15;30.52;99280.03;4938813;29;20122;-52
2022/04/23 11:21:24;;;;;;;5.45;2.63;;;;;;;27.13;30.84;99281.88;4937889;29;20385;-54
2022/04/23 11:23:53;;;;;;;5.40;3.03;;;;;;;27.19;30.51;99279.94;4955834;29;20035;-49
2022/04/23 11:26:39;;;;;;;8.23;2.88;;;;;;;27.18;30.71;99288.75;4955308;29;20046;-53
2022/04/23 11:29:08;;;;;;;6.55;2.70;;;;;;;27.25;30.49;99288.53;4955252;29;20498;-53
2022/04/23 11:31:36;;;;;;;6.57;2.63;;;;;;;27.23;30.71;99292.97;4955202;29;20038;-52
2022/04/23 11:34:05;;;;;;;6.05;2.60;;;;;;;27.24;30.46;99285.97;4955217;29;20031;-51
2022/04/23 11:36:35;;;;;;;8.10;3.25;;;;;;;27.28;30.41;99285.81;4954552;29;20043;-51
2022/04/23 11:39:09;;;;;;;8.82;3.35;;;;;;;27.30;30.17;99298.97;4955260;29;20114;-52
2022/04/23 11:41:42;;;;;;;5.90;2.60;;;;;;;27.31;30.17;99298.03;4955141;29;20117;-54
2022/04/23 11:44:16;;;;;;;6.13;2.55;;;;;;;27.26;30.26;99298.16;4955499;29;20031;-48
2022/04/23 11:46:45;;;;;;;7.78;3.38;;;;;;;27.21;30.07;99300.09;4955187;29;20031;-51
2022/04/23 11:49:33;;;;;;;7.35;3.00;;;;;;;27.25;29.81;99304.34;4954683;29;20118;-48
2022/04/23 11:52:05;;;;;;;7.00;3.10;;;;;;;27.16;29.58;99288.81;4955134;29;20106;-50
2022/04/23 11:54:36;;;;;;;5.65;2.90;;;;;;;27.18;29.91;99300.16;4955079;29;20027;-50
2022/04/23 11:57:08;;;;;;;7.47;2.95;;;;;;;27.21;30.06;99296.56;4954878;29;20046;-48
2022/04/23 11:59:38;;;;;;;6.13;2.83;;;;;;;27.23;29.65;99300.03;4955271;29;20389;-50
2022/04/23 12:02:18;;;;;;;7.45;3.10;;;;;;;27.15;29.57;99305.50;4954868;29;20112;-49
2022/04/23 12:04:48;;;;;;;6.35;2.30;;;;;;;27.19;29.60;99287.84;4954812;29;20039;-48
2022/04/23 12:07:16;;;;;;;5.55;2.35;;;;;;;27.20;29.90;99292.22;4955374;29;20031;-49